createdAt,value
2023-04-05T00:00:05.703Z,0.69
2023-04-05T00:01:05.720Z,0.68
2023-04-05T00:02:05.753Z,0.66
2023-04-05T00:03:05.885Z,0.68
2023-04-05T00:04:06.761Z,0.67
2023-04-05T00:05:05.847Z,0.67
2023-04-05T00:06:05.865Z,0.67
2023-04-05T00:07:05.889Z,0.68
2023-04-05T00:08:05.908Z,0.68
2023-04-05T00:09:05.941Z,0.68
2023-04-05T00:10:06.206Z,0.66
2023-04-05T00:11:06.001Z,0.67
2023-04-05T00:12:06.023Z,0.67
2023-04-05T00:13:06.066Z,0.66
2023-04-05T00:14:06.091Z,0.68
2023-04-05T00:15:06.133Z,0.67
2023-04-05T00:16:06.165Z,0.67
2023-04-05T00:17:06.188Z,0.67
2023-04-05T00:18:07.189Z,0.67
2023-04-05T00:19:06.245Z,0.66
2023-04-05T00:20:06.280Z,0.66
2023-04-05T00:21:06.308Z,0.67
2023-04-05T00:22:06.348Z,0.65
2023-04-05T00:23:06.449Z,0.68
2023-04-05T00:24:06.453Z,0.67
2023-04-05T00:25:06.425Z,0.67
2023-04-05T00:26:06.457Z,0.66
2023-04-05T00:27:06.482Z,0.68
2023-04-05T00:28:06.523Z,0.68
2023-04-05T00:29:06.544Z,0.67
2023-04-05T00:30:06.621Z,0.68
2023-04-05T00:31:06.599Z,0.68
2023-04-05T00:32:06.707Z,0.66
2023-04-05T00:33:06.843Z,0.67
2023-04-05T00:34:06.675Z,0.68
2023-04-05T00:35:06.697Z,0.66
2023-04-05T00:36:06.764Z,0.66
2023-04-05T00:37:06.748Z,0.67
2023-04-05T00:38:06.770Z,0.67
2023-04-05T00:39:06.802Z,0.67
2023-04-05T00:40:06.811Z,0.68
2023-04-05T00:41:06.842Z,0.66
2023-04-05T00:42:07.770Z,0.67
2023-04-05T00:43:06.872Z,0.66
2023-04-05T00:44:06.905Z,0.67
2023-04-05T00:45:07.223Z,0.67
2023-04-05T00:46:06.965Z,0.66
2023-04-05T00:47:06.988Z,0.65
2023-04-05T00:48:07.018Z,0.67
2023-04-05T00:49:07.041Z,0.66
2023-04-05T00:50:07.070Z,0.66
2023-04-05T00:51:07.099Z,0.67
2023-04-05T00:52:07.120Z,0.67
2023-04-05T00:53:07.217Z,0.65
2023-04-05T00:54:07.199Z,0.66
2023-04-05T00:55:07.328Z,0.66
2023-04-05T00:56:07.216Z,0.66
2023-04-05T00:57:07.252Z,0.67
2023-04-05T00:58:07.277Z,0.66
2023-04-05T00:59:07.333Z,0.67
2023-04-05T01:00:07.325Z,0.67
2023-04-05T01:01:07.395Z,0.67
2023-04-05T01:02:07.359Z,0.67
2023-04-05T01:03:07.390Z,0.66
2023-04-05T01:04:07.482Z,0.66
2023-04-05T01:05:07.440Z,0.67
2023-04-05T01:06:08.625Z,0.67
2023-04-05T01:07:07.558Z,0.66
2023-04-05T01:08:07.503Z,0.66
2023-04-05T01:09:07.529Z,0.66
2023-04-05T01:10:07.549Z,0.65
2023-04-05T01:11:08.181Z,0.64
2023-04-05T01:12:07.582Z,0.67
2023-04-05T01:13:07.613Z,0.65
2023-04-05T01:14:07.643Z,0.66
2023-04-05T01:15:07.648Z,0.67
2023-04-05T01:16:07.740Z,0.65
2023-04-05T01:17:07.722Z,0.66
2023-04-05T01:18:07.808Z,0.65
2023-04-05T01:19:07.753Z,0.66
2023-04-05T01:20:07.772Z,0.65
2023-04-05T01:21:07.791Z,0.65
2023-04-05T01:22:07.823Z,0.66
2023-04-05T01:23:07.842Z,0.65
2023-04-05T01:24:07.937Z,0.66
2023-04-05T01:25:07.901Z,0.65
2023-04-05T01:26:07.933Z,0.67
2023-04-05T01:27:07.966Z,0.66
2023-04-05T01:28:07.978Z,0.64
2023-04-05T01:29:08.009Z,0.66
2023-04-05T01:30:08.029Z,0.65
2023-04-05T01:31:08.115Z,0.65
2023-04-05T01:32:08.070Z,0.66
2023-04-05T01:33:08.205Z,0.65
2023-04-05T01:34:08.129Z,0.66
2023-04-05T01:35:08.157Z,0.66
2023-04-05T01:36:08.242Z,0.65
2023-04-05T01:37:08.206Z,0.65
2023-04-05T01:38:08.236Z,0.66
2023-04-05T01:39:08.680Z,0.67
2023-04-05T01:40:08.351Z,0.65
2023-04-05T01:41:08.320Z,0.65
2023-04-05T01:42:08.342Z,0.66
2023-04-05T01:43:08.364Z,0.65
2023-04-05T01:44:08.460Z,0.66
2023-04-05T01:45:08.415Z,0.64
2023-04-05T01:46:08.515Z,0.65
2023-04-05T01:47:08.472Z,0.65
2023-04-05T01:48:08.482Z,0.64
2023-04-05T01:49:08.551Z,0.65
2023-04-05T01:50:08.620Z,0.66
2023-04-05T01:51:09.181Z,0.64
2023-04-05T01:52:08.693Z,0.66
2023-04-05T01:53:08.628Z,0.64
2023-04-05T01:54:08.630Z,0.65
2023-04-05T01:55:08.653Z,0.67
2023-04-05T01:56:08.677Z,0.65
2023-04-05T01:57:08.695Z,0.66
2023-04-05T01:58:08.719Z,0.64
2023-04-05T01:59:08.786Z,0.66
2023-04-05T02:00:08.810Z,0.66
2023-04-05T02:01:08.840Z,0.65
2023-04-05T02:02:08.804Z,0.63
2023-04-05T02:03:09.328Z,0.64
2023-04-05T02:04:08.868Z,0.65
2023-04-05T02:05:08.917Z,0.64
2023-04-05T02:06:08.914Z,0.65
2023-04-05T02:07:08.936Z,0.64
2023-04-05T02:08:08.976Z,0.65
2023-04-05T02:09:09.007Z,0.65
2023-04-05T02:10:09.035Z,0.64
2023-04-05T02:11:09.049Z,0.63
2023-04-05T02:12:09.083Z,0.65
2023-04-05T02:13:09.107Z,0.64
2023-04-05T02:14:09.139Z,0.65
2023-04-05T02:15:09.165Z,0.65
2023-04-05T02:16:09.205Z,0.65
2023-04-05T02:17:09.218Z,0.65
2023-04-05T02:18:09.267Z,0.63
2023-04-05T02:19:09.273Z,0.65
2023-04-05T02:20:09.309Z,0.64
2023-04-05T02:21:09.327Z,0.64
2023-04-05T02:22:09.371Z,0.64
2023-04-05T02:23:09.371Z,0.64
2023-04-05T02:24:09.434Z,0.64
2023-04-05T02:25:09.431Z,0.64
2023-04-05T02:26:09.446Z,0.64
2023-04-05T02:27:09.480Z,0.65
2023-04-05T02:28:11.418Z,0.64
2023-04-05T02:29:09.530Z,0.64
2023-04-05T02:30:09.580Z,0.65
2023-04-05T02:31:09.587Z,0.65
2023-04-05T02:32:09.600Z,0.64
2023-04-05T02:33:09.738Z,0.65
2023-04-05T02:34:09.648Z,0.65
2023-04-05T02:35:09.688Z,0.64
2023-04-05T02:36:09.737Z,0.62
2023-04-05T02:37:09.734Z,0.65
2023-04-05T02:38:10.190Z,0.64
2023-04-05T02:39:10.682Z,0.63
2023-04-05T02:40:09.830Z,0.63
2023-04-05T02:41:09.876Z,0.64
2023-04-05T02:42:09.881Z,0.65
2023-04-05T02:43:09.904Z,0.64
2023-04-05T02:44:09.934Z,0.64
2023-04-05T02:45:10.198Z,0.64
2023-04-05T02:46:10.027Z,0.64
2023-04-05T02:47:10.708Z,0.64
2023-04-05T02:48:10.678Z,0.64
2023-04-05T02:49:10.079Z,0.64
2023-04-05T02:50:10.099Z,0.64
2023-04-05T02:51:10.124Z,0.64
2023-04-05T02:52:10.154Z,0.63
2023-04-05T02:53:10.183Z,0.65
2023-04-05T02:54:10.267Z,0.64
2023-04-05T02:55:10.247Z,0.64
2023-04-05T02:56:10.270Z,0.65
2023-04-05T02:57:10.294Z,0.63
2023-04-05T02:58:10.400Z,0.63
2023-04-05T02:59:10.382Z,0.63
2023-04-05T03:00:10.386Z,0.64
2023-04-05T03:01:10.457Z,0.63
2023-04-05T03:02:10.434Z,0.65
2023-04-05T03:03:10.520Z,0.64
2023-04-05T03:04:10.495Z,0.63
2023-04-05T03:05:10.510Z,0.65
2023-04-05T03:06:10.741Z,0.64
2023-04-05T03:07:10.573Z,0.63
2023-04-05T03:08:10.586Z,0.65
2023-04-05T03:09:10.612Z,0.64
2023-04-05T03:10:10.654Z,0.62
2023-04-05T03:11:10.673Z,0.63
2023-04-05T03:12:10.696Z,0.64
2023-04-05T03:13:10.735Z,0.64
2023-04-05T03:14:10.785Z,0.64
2023-04-05T03:15:10.801Z,0.63
2023-04-05T03:16:10.835Z,0.64
2023-04-05T03:17:10.858Z,0.64
2023-04-05T03:18:10.900Z,0.64
2023-04-05T03:19:11.045Z,0.63
2023-04-05T03:20:10.952Z,0.63
2023-04-05T03:21:11.008Z,0.64
2023-04-05T03:22:11.013Z,0.63
2023-04-05T03:23:11.046Z,0.64
2023-04-05T03:24:11.118Z,0.63
2023-04-05T03:25:11.106Z,0.63
2023-04-05T03:26:11.123Z,0.62
2023-04-05T03:27:11.177Z,0.64
2023-04-05T03:28:11.175Z,0.63
2023-04-05T03:29:11.209Z,0.64
2023-04-05T03:30:11.239Z,0.63
2023-04-05T03:31:11.290Z,0.63
2023-04-05T03:32:11.301Z,0.62
2023-04-05T03:33:11.322Z,0.64
2023-04-05T03:34:11.354Z,0.64
2023-04-05T03:35:11.685Z,0.62
2023-04-05T03:36:11.507Z,0.64
2023-04-05T03:37:11.445Z,0.63
2023-04-05T03:38:11.532Z,0.63
2023-04-05T03:39:11.502Z,0.64
2023-04-05T03:40:11.534Z,0.64
2023-04-05T03:41:11.566Z,0.63
2023-04-05T03:42:11.585Z,0.64
2023-04-05T03:43:11.615Z,0.63
2023-04-05T03:44:11.647Z,0.63
2023-04-05T03:45:11.678Z,0.63
2023-04-05T03:46:11.715Z,0.63
2023-04-05T03:47:11.785Z,0.63
2023-04-05T03:48:11.761Z,0.63
2023-04-05T03:49:11.784Z,0.63
2023-04-05T03:50:11.883Z,0.63
2023-04-05T03:51:11.874Z,0.63
2023-04-05T03:52:11.865Z,0.65
2023-04-05T03:53:11.879Z,0.63
2023-04-05T03:54:11.904Z,0.65
2023-04-05T03:55:11.936Z,0.64
2023-04-05T03:56:11.965Z,0.64
2023-04-05T03:57:11.986Z,0.64
2023-04-05T03:58:12.012Z,0.65
2023-04-05T03:59:12.079Z,0.63
2023-04-05T04:00:12.152Z,0.63
2023-04-05T04:01:12.085Z,0.64
2023-04-05T04:02:12.130Z,0.63
2023-04-05T04:03:12.233Z,0.64
2023-04-05T04:04:12.183Z,0.63
2023-04-05T04:05:12.289Z,0.64
2023-04-05T04:06:12.254Z,0.63
2023-04-05T04:07:12.273Z,0.63
2023-04-05T04:08:12.312Z,0.62
2023-04-05T04:09:12.338Z,0.64
2023-04-05T04:10:12.383Z,0.62
2023-04-05T04:11:12.412Z,0.62
2023-04-05T04:12:12.451Z,0.63
2023-04-05T04:13:12.491Z,0.63
2023-04-05T04:14:13.173Z,0.63
2023-04-05T04:15:12.556Z,0.63
2023-04-05T04:16:12.634Z,0.63
2023-04-05T04:17:12.617Z,0.62
2023-04-05T04:18:12.651Z,0.63
2023-04-05T04:19:12.677Z,0.63
2023-04-05T04:20:12.733Z,0.63
2023-04-05T04:21:12.819Z,0.63
2023-04-05T04:22:12.823Z,0.64
2023-04-05T04:23:12.791Z,0.64
2023-04-05T04:24:13.667Z,0.63
2023-04-05T04:25:12.906Z,0.64
2023-04-05T04:26:12.898Z,0.63
2023-04-05T04:27:12.909Z,0.63
2023-04-05T04:28:13.024Z,0.63
2023-04-05T04:29:12.982Z,0.63
2023-04-05T04:30:13.002Z,0.62
2023-04-05T04:31:13.114Z,0.64
2023-04-05T04:32:13.184Z,0.63
2023-04-05T04:33:13.187Z,0.62
2023-04-05T04:34:13.146Z,0.63
2023-04-05T04:35:13.182Z,0.63
2023-04-05T04:36:13.207Z,0.63
2023-04-05T04:37:13.242Z,0.63
2023-04-05T04:38:13.270Z,0.63
2023-04-05T04:39:13.308Z,0.63
2023-04-05T04:40:13.413Z,0.63
2023-04-05T04:41:13.396Z,0.64
2023-04-05T04:42:13.410Z,0.64
2023-04-05T04:43:13.445Z,0.63
2023-04-05T04:44:13.486Z,0.63
2023-04-05T04:45:13.526Z,0.63
2023-04-05T04:46:13.625Z,0.62
2023-04-05T04:47:14.979Z,0.63
2023-04-05T04:48:13.625Z,0.62
2023-04-05T04:49:13.653Z,0.63
2023-04-05T04:50:13.696Z,0.65
2023-04-05T04:51:13.720Z,0.63
2023-04-05T04:52:13.767Z,0.63
2023-04-05T04:53:13.803Z,0.62
2023-04-05T04:54:13.834Z,0.63
2023-04-05T04:55:13.845Z,0.62
2023-04-05T04:56:13.905Z,0.62
2023-04-05T04:57:13.925Z,0.63
2023-04-05T04:58:13.967Z,0.63
2023-04-05T04:59:14.016Z,0.63
2023-04-05T05:00:14.051Z,0.62
2023-04-05T05:01:14.175Z,0.63
2023-04-05T05:02:14.099Z,0.63
2023-04-05T05:03:14.176Z,0.62
2023-04-05T05:04:14.212Z,0.63
2023-04-05T05:05:14.696Z,0.63
2023-04-05T05:06:14.244Z,0.63
2023-04-05T05:07:14.288Z,0.61
2023-04-05T05:08:14.325Z,0.64
2023-04-05T05:09:14.352Z,0.63
2023-04-05T05:10:14.377Z,0.63
2023-04-05T05:11:14.477Z,0.62
2023-04-05T05:12:14.448Z,0.62
2023-04-05T05:13:17.261Z,0.62
2023-04-05T05:14:14.484Z,0.63
2023-04-05T05:15:14.494Z,0.63
2023-04-05T05:16:14.537Z,0.62
2023-04-05T05:17:14.536Z,0.63
2023-04-05T05:18:14.535Z,0.63
2023-04-05T05:19:14.558Z,0.62
2023-04-05T05:20:14.673Z,0.63
2023-04-05T05:21:14.555Z,0.61
2023-04-05T05:22:14.580Z,0.63
2023-04-05T05:23:14.577Z,0.62
2023-04-05T05:24:14.615Z,0.63
2023-04-05T05:25:14.617Z,0.62
2023-04-05T05:26:14.638Z,0.63
2023-04-05T05:27:14.643Z,0.61
2023-04-05T05:28:14.654Z,0.62
2023-04-05T05:29:14.661Z,0.62
2023-04-05T05:30:14.678Z,0.62
2023-04-05T05:31:14.828Z,0.62
2023-04-05T05:32:15.673Z,0.63
2023-04-05T05:33:14.722Z,0.62
2023-04-05T05:34:14.739Z,0.63
2023-04-05T05:35:14.730Z,0.63
2023-04-05T05:36:14.740Z,0.63
2023-04-05T05:37:14.758Z,0.64
2023-04-05T05:38:14.770Z,0.63
2023-04-05T05:39:14.779Z,0.63
2023-04-05T05:40:14.833Z,0.63
2023-04-05T05:41:14.876Z,0.61
2023-04-05T05:42:14.817Z,0.62
2023-04-05T05:43:14.819Z,0.62
2023-04-05T05:44:14.832Z,0.63
2023-04-05T05:45:14.841Z,0.63
2023-04-05T05:46:14.892Z,0.62
2023-04-05T05:47:14.859Z,0.62
2023-04-05T05:48:14.872Z,0.63
2023-04-05T05:49:15.681Z,0.63
2023-04-05T05:50:14.896Z,0.62
2023-04-05T05:51:14.901Z,0.61
2023-04-05T05:52:14.910Z,0.61
2023-04-05T05:53:14.916Z,0.61
2023-04-05T05:54:14.940Z,0.62
2023-04-05T05:55:14.945Z,0.61
2023-04-05T05:56:14.964Z,0.62
2023-04-05T05:57:14.986Z,0.62
2023-04-05T05:58:14.989Z,0.62
2023-04-05T05:59:15.049Z,0.62
2023-04-05T06:00:15.109Z,0.62
2023-04-05T06:01:15.027Z,0.62
2023-04-05T06:02:15.036Z,0.61
2023-04-05T06:03:15.133Z,0.62
2023-04-05T06:04:15.191Z,0.62
2023-04-05T06:05:15.072Z,0.62
2023-04-05T06:06:15.078Z,0.61
2023-04-05T06:07:15.098Z,0.60
2023-04-05T06:08:15.106Z,0.62
2023-04-05T06:09:15.116Z,0.63
2023-04-05T06:10:15.183Z,0.62
2023-04-05T06:11:15.130Z,0.62
2023-04-05T06:12:15.138Z,0.61
2023-04-05T06:13:15.153Z,0.61
2023-04-05T06:14:15.160Z,0.62
2023-04-05T06:15:15.171Z,0.62
2023-04-05T06:16:15.235Z,0.61
2023-04-05T06:17:15.229Z,0.61
2023-04-05T06:18:15.199Z,0.62
2023-04-05T06:19:15.198Z,0.62
2023-04-05T06:20:15.227Z,0.62
2023-04-05T06:21:15.360Z,0.62
2023-04-05T06:22:15.278Z,0.63
2023-04-05T06:23:15.257Z,0.62
2023-04-05T06:24:15.281Z,0.62
2023-04-05T06:25:17.688Z,0.62
2023-04-05T06:26:15.311Z,0.63
2023-04-05T06:27:15.305Z,0.63
2023-04-05T06:28:15.346Z,0.63
2023-04-05T06:29:15.323Z,0.63
2023-04-05T06:30:15.350Z,0.62
2023-04-05T06:31:15.390Z,0.62
2023-04-05T06:32:15.355Z,0.63
2023-04-05T06:33:15.351Z,0.63
2023-04-05T06:34:15.367Z,0.62
2023-04-05T06:35:15.383Z,0.62
2023-04-05T06:36:15.379Z,0.62
2023-04-05T06:37:15.421Z,0.62
2023-04-05T06:38:15.397Z,0.63
2023-04-05T06:39:15.413Z,0.62
2023-04-05T06:40:15.415Z,0.62
2023-04-05T06:41:15.433Z,0.62
2023-04-05T06:42:15.476Z,0.63
2023-04-05T06:43:15.501Z,0.62
2023-04-05T06:44:15.447Z,0.63
2023-04-05T06:45:15.457Z,0.63
2023-04-05T06:46:15.579Z,0.62
2023-04-05T06:47:15.477Z,0.63
2023-04-05T06:48:15.476Z,0.63
2023-04-05T06:49:15.486Z,0.62
2023-04-05T06:50:15.504Z,0.62
2023-04-05T06:51:15.510Z,0.62
2023-04-05T06:52:15.540Z,0.63
2023-04-05T06:53:15.534Z,0.63
2023-04-05T06:54:16.164Z,0.63
2023-04-05T06:55:15.558Z,0.62
2023-04-05T06:56:15.562Z,0.62
2023-04-05T06:57:15.629Z,0.62
2023-04-05T06:58:15.583Z,0.63
2023-04-05T06:59:15.712Z,0.61
2023-04-05T07:00:15.691Z,0.62
2023-04-05T07:01:15.625Z,0.63
2023-04-05T07:02:15.674Z,0.61
2023-04-05T07:03:15.657Z,0.62
2023-04-05T07:04:15.751Z,0.64
2023-04-05T07:05:15.637Z,0.63
2023-04-05T07:06:15.749Z,0.62
2023-04-05T07:07:15.686Z,0.61
2023-04-05T07:08:15.672Z,0.62
2023-04-05T07:09:15.658Z,0.62
2023-04-05T07:10:15.688Z,0.63
2023-04-05T07:11:15.680Z,0.62
2023-04-05T07:12:15.765Z,0.63
2023-04-05T07:13:15.716Z,0.62
2023-04-05T07:14:15.711Z,0.62
2023-04-05T07:15:15.709Z,0.62
2023-04-05T07:16:15.743Z,0.62
2023-04-05T07:17:15.737Z,0.61
2023-04-05T07:18:15.816Z,0.61
2023-04-05T07:19:15.772Z,0.61
2023-04-05T07:20:15.768Z,0.62
2023-04-05T07:21:15.778Z,0.60
2023-04-05T07:22:15.797Z,0.61
2023-04-05T07:23:15.820Z,0.62
2023-04-05T07:24:15.816Z,0.59
2023-04-05T07:25:15.916Z,0.61
2023-04-05T07:26:15.843Z,0.61
2023-04-05T07:27:15.869Z,0.61
2023-04-05T07:28:16.022Z,0.60
2023-04-05T07:29:15.876Z,0.58
2023-04-05T07:30:16.168Z,0.59
2023-04-05T07:31:15.911Z,0.60
2023-04-05T07:32:15.969Z,0.59
2023-04-05T07:33:16.023Z,0.59
2023-04-05T07:34:16.213Z,0.60
2023-04-05T07:35:15.961Z,0.59
2023-04-05T07:36:16.006Z,0.58
2023-04-05T07:37:15.980Z,0.58
2023-04-05T07:38:15.987Z,0.59
2023-04-05T07:39:15.993Z,0.59
2023-04-05T07:40:16.006Z,0.58
2023-04-05T07:41:16.204Z,0.59
2023-04-05T07:42:16.014Z,0.59
2023-04-05T07:43:16.026Z,0.58
2023-04-05T07:44:16.044Z,0.58
2023-04-05T07:45:16.065Z,0.57
2023-04-05T07:46:16.697Z,0.59
2023-04-05T07:47:16.070Z,0.58
2023-04-05T07:48:16.086Z,0.58
2023-04-05T07:49:16.175Z,0.57
2023-04-05T07:50:16.131Z,0.58
2023-04-05T07:51:16.143Z,0.57
2023-04-05T07:52:16.124Z,0.57
2023-04-05T07:53:16.129Z,0.58
2023-04-05T07:54:16.149Z,0.57
2023-04-05T07:55:16.161Z,0.57
2023-04-05T07:56:16.174Z,0.57
2023-04-05T07:57:16.207Z,0.57
2023-04-05T07:58:16.249Z,0.57
2023-04-05T07:59:16.288Z,0.57
2023-04-05T08:00:16.317Z,0.57
2023-04-05T08:01:16.346Z,0.57
2023-04-05T08:02:16.372Z,0.56
2023-04-05T08:03:16.616Z,0.58
2023-04-05T08:04:16.443Z,0.59
2023-04-05T08:05:16.530Z,0.57
2023-04-05T08:06:16.515Z,0.57
2023-04-05T08:07:16.567Z,0.57
2023-04-05T08:08:16.583Z,0.57
2023-04-05T08:09:16.611Z,0.58
2023-04-05T08:10:16.718Z,0.57
2023-04-05T08:11:16.676Z,0.57
2023-04-05T08:12:16.707Z,0.57
2023-04-05T08:13:16.738Z,0.57
2023-04-05T08:14:16.769Z,0.57
2023-04-05T08:15:16.810Z,0.57
2023-04-05T08:16:16.876Z,0.57
2023-04-05T08:17:16.860Z,0.56
2023-04-05T08:18:16.896Z,0.57
2023-04-05T08:19:16.922Z,0.57
2023-04-05T08:20:16.975Z,0.56
2023-04-05T08:21:16.967Z,0.56
2023-04-05T08:22:17.010Z,0.56
2023-04-05T08:23:17.108Z,0.57
2023-04-05T08:24:17.146Z,0.57
2023-04-05T08:25:17.120Z,0.56
2023-04-05T08:26:17.143Z,0.56
2023-04-05T08:27:17.239Z,0.55
2023-04-05T08:28:17.212Z,0.56
2023-04-05T08:29:17.290Z,0.56
2023-04-05T08:30:17.398Z,0.55
2023-04-05T08:31:17.304Z,0.55
2023-04-05T08:32:17.351Z,0.55
2023-04-05T08:33:17.365Z,0.54
2023-04-05T08:34:17.398Z,0.54
2023-04-05T08:35:17.485Z,0.56
2023-04-05T08:36:17.468Z,0.56
2023-04-05T08:37:17.507Z,0.56
2023-04-05T08:38:17.544Z,0.55
2023-04-05T08:39:17.574Z,0.55
2023-04-05T08:40:17.631Z,0.55
2023-04-05T08:41:17.644Z,0.55
2023-04-05T08:42:17.671Z,0.54
2023-04-05T08:43:19.833Z,0.53
2023-04-05T08:44:17.703Z,0.54
2023-04-05T08:45:17.704Z,0.55
2023-04-05T08:46:17.843Z,0.54
2023-04-05T08:47:17.777Z,0.54
2023-04-05T08:48:17.787Z,0.53
2023-04-05T08:49:17.729Z,0.54
2023-04-05T08:50:17.732Z,0.53
2023-04-05T08:51:17.756Z,0.54
2023-04-05T08:52:18.166Z,0.53
2023-04-05T08:53:17.761Z,0.54
2023-04-05T08:54:17.768Z,0.54
2023-04-05T08:55:17.762Z,0.53
2023-04-05T08:56:17.772Z,0.53
2023-04-05T08:57:17.888Z,0.53
2023-04-05T08:58:17.792Z,0.53
2023-04-05T08:59:17.831Z,0.53
2023-04-05T09:00:17.821Z,0.53
2023-04-05T09:01:17.837Z,0.52
2023-04-05T09:02:17.861Z,0.52
2023-04-05T09:03:17.969Z,0.53
2023-04-05T09:04:17.834Z,0.53
2023-04-05T09:05:17.845Z,0.52
2023-04-05T09:06:17.842Z,0.52
2023-04-05T09:07:17.840Z,0.52
2023-04-05T09:08:17.850Z,0.52
2023-04-05T09:09:17.913Z,0.52
2023-04-05T09:10:17.934Z,0.52
2023-04-05T09:11:17.867Z,0.52
2023-04-05T09:12:17.864Z,0.52
2023-04-05T09:13:17.876Z,0.52
2023-04-05T09:14:17.870Z,0.52
2023-04-05T09:15:17.874Z,0.50
2023-04-05T09:16:17.922Z,0.52
2023-04-05T09:17:18.664Z,0.51
2023-04-05T09:18:26.263Z,0.50
2023-04-05T09:19:18.886Z,0.51
2023-04-05T09:20:17.938Z,0.51
2023-04-05T09:21:17.882Z,0.51
2023-04-05T09:22:17.886Z,0.49
2023-04-05T09:23:17.909Z,0.51
2023-04-05T09:24:17.904Z,0.50
2023-04-05T09:25:17.918Z,0.51
2023-04-05T09:26:18.667Z,0.51
2023-04-05T09:27:17.936Z,0.50
2023-04-05T09:28:17.984Z,0.51
2023-04-05T09:29:17.949Z,0.52
2023-04-05T09:30:17.948Z,0.51
2023-04-05T09:31:17.979Z,0.51
2023-04-05T09:32:19.660Z,0.51
2023-04-05T09:33:17.974Z,0.51
2023-04-05T09:34:17.981Z,0.51
2023-04-05T09:35:17.984Z,0.50
2023-04-05T09:36:17.989Z,0.50
2023-04-05T09:37:17.985Z,0.51
2023-04-05T09:38:18.006Z,0.50
2023-04-05T09:39:17.992Z,0.51
2023-04-05T09:40:18.020Z,0.53
2023-04-05T09:41:18.027Z,0.51
2023-04-05T09:42:18.075Z,0.51
2023-04-05T09:43:18.028Z,0.51
2023-04-05T09:44:18.053Z,0.52
2023-04-05T09:45:18.056Z,0.52
2023-04-05T09:46:18.082Z,0.50
2023-04-05T09:47:18.061Z,0.51
2023-04-05T09:48:18.153Z,0.50
2023-04-05T09:49:18.075Z,0.52
2023-04-05T09:50:18.072Z,0.51
2023-04-05T09:51:18.111Z,0.51
2023-04-05T09:52:18.077Z,0.51
2023-04-05T09:53:18.076Z,0.51
2023-04-05T09:54:18.088Z,0.51
2023-04-05T09:55:18.088Z,0.52
2023-04-05T09:56:18.084Z,0.51
2023-04-05T09:57:18.099Z,0.52
2023-04-05T09:58:18.102Z,0.51
2023-04-05T09:59:18.143Z,0.52
2023-04-05T10:00:18.127Z,0.51
2023-04-05T10:01:18.132Z,0.51
2023-04-05T10:02:18.181Z,0.51
2023-04-05T10:03:18.150Z,0.52
2023-04-05T10:04:18.151Z,0.51
2023-04-05T10:05:18.155Z,0.52
2023-04-05T10:06:18.178Z,0.52
2023-04-05T10:07:18.204Z,0.52
2023-04-05T10:08:18.181Z,0.51
2023-04-05T10:09:18.247Z,0.52
2023-04-05T10:10:18.185Z,0.51
2023-04-05T10:11:18.204Z,0.52
2023-04-05T10:12:18.196Z,0.51
2023-04-05T10:13:18.179Z,0.51
2023-04-05T10:14:18.212Z,0.51
2023-04-05T10:15:18.190Z,0.50
2023-04-05T10:16:18.233Z,0.51
2023-04-05T10:17:18.187Z,0.52
2023-04-05T10:18:18.224Z,0.51
2023-04-05T10:19:18.188Z,0.51
2023-04-05T10:20:18.203Z,0.51
2023-04-05T10:21:18.206Z,0.51
2023-04-05T10:22:18.198Z,0.51
2023-04-05T10:23:18.204Z,0.51
2023-04-05T10:24:18.206Z,0.52
2023-04-05T10:25:18.210Z,0.50
2023-04-05T10:26:18.210Z,0.50
2023-04-05T10:27:18.231Z,0.52
2023-04-05T10:28:18.233Z,0.50
2023-04-05T10:29:18.263Z,0.51
2023-04-05T10:30:18.260Z,0.51
2023-04-05T10:31:30.353Z,0.50
2023-04-05T10:32:19.367Z,0.50
2023-04-05T10:33:18.286Z,0.51
2023-04-05T10:34:18.286Z,0.51
2023-04-05T10:35:18.299Z,0.52
2023-04-05T10:36:18.312Z,0.52
2023-04-05T10:37:18.282Z,0.52
2023-04-05T10:38:18.299Z,0.51
2023-04-05T10:39:18.350Z,0.52
2023-04-05T10:40:18.282Z,0.53
2023-04-05T10:41:18.288Z,0.53
2023-04-05T10:42:18.300Z,0.52
2023-04-05T10:43:18.297Z,0.53
2023-04-05T10:44:25.766Z,0.52
2023-04-05T10:45:19.311Z,0.52
2023-04-05T10:46:18.376Z,0.52
2023-04-05T10:47:18.310Z,0.53
2023-04-05T10:48:18.667Z,0.52
2023-04-05T10:49:18.358Z,0.54
2023-04-05T10:50:18.307Z,0.53
2023-04-05T10:51:18.328Z,0.52
2023-04-05T10:52:18.297Z,0.53
2023-04-05T10:53:18.321Z,0.54
2023-04-05T10:54:18.381Z,0.53
2023-04-05T10:55:18.327Z,0.54
2023-04-05T10:56:18.330Z,0.53
2023-04-05T10:57:18.335Z,0.53
2023-04-05T10:58:18.368Z,0.54
2023-04-05T10:59:18.440Z,0.53
2023-04-05T11:00:18.470Z,0.53
2023-04-05T11:01:18.413Z,0.54
2023-04-05T11:02:18.347Z,0.53
2023-04-05T11:03:18.442Z,0.54
2023-04-05T11:04:18.401Z,0.53
2023-04-05T11:05:18.373Z,0.54
2023-04-05T11:06:18.377Z,0.53
2023-04-05T11:07:18.364Z,0.54
2023-04-05T11:08:18.428Z,0.53
2023-04-05T11:09:18.436Z,0.55
2023-04-05T11:10:18.439Z,0.55
2023-04-05T11:11:18.393Z,0.53
2023-04-05T11:12:18.404Z,0.55
2023-04-05T11:13:18.412Z,0.53
2023-04-05T11:14:18.467Z,0.54
2023-04-05T11:15:18.427Z,0.54
2023-04-05T11:16:18.493Z,0.54
2023-04-05T11:17:18.435Z,0.54
2023-04-05T11:18:18.434Z,0.53
2023-04-05T11:19:18.443Z,0.54
2023-04-05T11:20:18.445Z,0.54
2023-04-05T11:21:18.464Z,0.54
2023-04-05T11:22:18.444Z,0.55
2023-04-05T11:23:18.458Z,0.53
2023-04-05T11:24:18.457Z,0.54
2023-04-05T11:25:18.451Z,0.54
2023-04-05T11:26:18.519Z,0.53
2023-04-05T11:27:18.449Z,0.54
2023-04-05T11:28:18.532Z,0.53
2023-04-05T11:29:18.453Z,0.52
2023-04-05T11:30:18.456Z,0.52
2023-04-05T11:31:18.657Z,0.54
2023-04-05T11:32:18.509Z,0.53
2023-04-05T11:33:18.575Z,0.54
2023-04-05T11:34:18.646Z,0.52
2023-04-05T11:35:18.671Z,0.54
2023-04-05T11:36:18.733Z,0.55
2023-04-05T11:37:18.763Z,0.53
2023-04-05T11:38:18.773Z,0.54
2023-04-05T11:39:18.815Z,0.54
2023-04-05T11:40:18.885Z,0.55
2023-04-05T11:41:18.908Z,0.54
2023-04-05T11:42:18.937Z,0.56
2023-04-05T11:43:19.001Z,0.54
2023-04-05T11:44:19.022Z,0.55
2023-04-05T11:45:19.073Z,0.54
2023-04-05T11:46:19.184Z,0.55
2023-04-05T11:47:19.102Z,0.54
2023-04-05T11:48:19.174Z,0.55
2023-04-05T11:49:19.126Z,0.55
2023-04-05T11:50:19.143Z,0.56
2023-04-05T11:51:19.195Z,0.55
2023-04-05T11:52:19.332Z,0.56
2023-04-05T11:53:19.246Z,0.56
2023-04-05T11:54:19.251Z,0.57
2023-04-05T11:55:19.262Z,0.56
2023-04-05T11:56:19.274Z,0.54
2023-04-05T11:57:19.310Z,0.53
2023-04-05T11:59:09.322Z,0.50
2023-04-05T12:00:09.120Z,0.50
2023-04-05T12:01:09.101Z,0.50
2023-04-05T12:02:09.140Z,0.50
2023-04-05T12:03:09.128Z,0.50
2023-04-05T12:04:09.035Z,0.50
2023-04-05T12:05:09.437Z,0.51
2023-04-05T12:06:08.920Z,0.51
2023-04-05T12:07:08.877Z,0.51
2023-04-05T12:08:08.845Z,0.52
2023-04-05T12:09:08.812Z,0.52
2023-04-05T12:10:08.885Z,0.52
2023-04-05T12:11:08.738Z,0.52
2023-04-05T12:12:08.694Z,0.52
2023-04-05T12:13:08.648Z,0.53
2023-04-05T12:14:08.692Z,0.53
2023-04-05T12:15:08.626Z,0.52
2023-04-05T12:16:08.597Z,0.52
2023-04-05T12:17:08.501Z,0.53
2023-04-05T12:18:08.484Z,0.52
2023-04-05T12:19:08.413Z,0.53
2023-04-05T12:20:08.460Z,0.53
2023-04-05T12:21:08.428Z,0.53
2023-04-05T12:22:08.297Z,0.55
2023-04-05T12:23:08.260Z,0.55
2023-04-05T12:24:08.226Z,0.54
2023-04-05T12:25:08.200Z,0.55
2023-04-05T12:26:08.313Z,0.55
2023-04-05T12:27:08.119Z,0.55
2023-04-05T12:28:08.072Z,0.54
2023-04-05T12:29:08.034Z,0.55
2023-04-05T12:30:08.059Z,0.56
2023-04-05T12:31:07.953Z,0.56
2023-04-05T12:32:07.947Z,0.56
2023-04-05T12:33:07.946Z,0.57
2023-04-05T12:34:07.898Z,0.57
2023-04-05T12:35:07.793Z,0.57
2023-04-05T12:36:07.808Z,0.56
2023-04-05T12:37:07.703Z,0.56
2023-04-05T12:38:07.666Z,0.58
2023-04-05T12:39:07.639Z,0.56
2023-04-05T12:40:07.593Z,0.57
2023-04-05T12:41:07.554Z,0.58
2023-04-05T12:42:07.518Z,0.58
2023-04-05T12:43:07.468Z,0.57
2023-04-05T12:44:07.436Z,0.58
2023-04-05T12:45:07.393Z,0.59
2023-04-05T12:46:07.414Z,0.59
2023-04-05T12:47:07.344Z,0.58
2023-04-05T12:48:07.334Z,0.57
2023-04-05T12:49:07.218Z,0.56
2023-04-05T12:50:07.185Z,0.57
2023-04-05T12:51:07.244Z,0.58
2023-04-05T12:52:07.847Z,0.57
2023-04-05T12:53:07.082Z,0.58
2023-04-05T12:54:07.066Z,0.58
2023-04-05T12:55:07.010Z,0.57
2023-04-05T12:56:07.056Z,0.57
2023-04-05T12:57:06.937Z,0.57
2023-04-05T12:58:06.961Z,0.58
2023-04-05T12:59:06.915Z,0.58
2023-04-05T13:00:06.832Z,0.58
2023-04-05T13:01:06.879Z,0.57
2023-04-05T13:02:06.824Z,0.58
2023-04-05T13:03:07.424Z,0.59
2023-04-05T13:04:15.461Z,0.58
2023-04-05T13:05:07.603Z,0.58
2023-04-05T13:06:06.566Z,0.58
2023-04-05T13:07:06.513Z,0.58
2023-04-05T13:08:06.484Z,0.58
2023-04-05T13:09:06.492Z,0.59
2023-04-05T13:10:06.378Z,0.60
2023-04-05T13:11:06.378Z,0.59
2023-04-05T13:12:06.923Z,0.60
2023-04-05T13:13:06.298Z,0.61
2023-04-05T13:14:06.242Z,0.59
2023-04-05T13:15:06.199Z,0.58
2023-04-05T13:16:06.238Z,0.58
2023-04-05T13:17:06.118Z,0.59
2023-04-05T13:18:06.110Z,0.59
2023-04-05T13:19:06.082Z,0.60